Time;durP1;ratioP1;P1;durP2;ratioP2;P2;SDS_P1;SDS_P2;PMS_P1;PMS_P2;Temp;Humidity;BMP_temperature;BMP_pressure;BME280_temperature;BME280_humidity;BME280_pressure;Samples;Min_cycle;Max_cycle;Signal;HPM_P1;HPM_P2
2024/02/26 00:05:01;;;;;;;0.50;0.50;;;9.60;91.70;;;;;;10430573;28;20707;-83
2024/02/26 00:10:04;;;;;;;0.60;0.60;;;9.50;91.80;;;;;;10423577;28;20206;-83
2024/02/26 00:15:07;;;;;;;0.50;0.50;;;9.40;91.90;;;;;;10430490;28;20209;-83
2024/02/26 00:20:13;;;;;;;0.40;0.40;;;9.30;91.90;;;;;;10431555;28;20299;-83
2024/02/26 00:25:16;;;;;;;0.50;0.50;;;9.30;91.90;;;;;;10434453;28;20250;-83
2024/02/26 00:30:18;;;;;;;0.40;0.40;;;9.30;92.00;;;;;;10443140;28;20200;-83
2024/02/26 00:35:22;;;;;;;0.40;0.40;;;9.40;92.00;;;;;;10441570;28;20702;-83
2024/02/26 00:40:24;;;;;;;0.50;0.50;;;9.40;91.70;;;;;;10440808;28;20190;-83
2024/02/26 00:45:26;;;;;;;0.40;0.40;;;9.40;91.70;;;;;;10447634;28;20225;-83
2024/02/26 00:50:30;;;;;;;0.50;0.50;;;9.30;91.80;;;;;;10441669;28;20257;-83
2024/02/26 00:55:32;;;;;;;0.40;0.40;;;9.30;92.10;;;;;;10466234;28;20229;-83
2024/02/26 01:00:35;;;;;;;0.50;0.50;;;9.30;92.10;;;;;;10461780;28;20197;-83
2024/02/26 01:05:38;;;;;;;0.53;0.53;;;9.30;92.10;;;;;;10438622;28;20266;-83
2024/02/26 01:10:41;;;;;;;0.50;0.50;;;9.30;92.10;;;;;;10426888;28;20627;-83
2024/02/26 01:15:44;;;;;;;0.50;0.50;;;9.30;92.30;;;;;;10424570;28;20275;-83
2024/02/26 01:20:48;;;;;;;0.40;0.40;;;9.40;91.80;;;;;;10425750;28;20193;-83
2024/02/26 01:25:50;;;;;;;0.40;0.40;;;9.40;92.00;;;;;;10425725;28;20233;-83
2024/02/26 01:30:52;;;;;;;0.40;0.40;;;9.40;92.10;;;;;;10420287;28;20263;-83
2024/02/26 01:35:56;;;;;;;0.40;0.40;;;9.40;91.90;;;;;;10421877;28;20732;-83
2024/02/26 01:40:58;;;;;;;0.40;0.40;;;9.40;91.90;;;;;;10423154;28;20213;-83
2024/02/26 01:46:01;;;;;;;0.40;0.40;;;9.40;92.10;;;;;;10437147;28;20275;-83
2024/02/26 01:51:05;;;;;;;0.40;0.40;;;9.40;92.00;;;;;;10443841;28;20198;-83
2024/02/26 01:56:08;;;;;;;0.50;0.50;;;9.40;92.20;;;;;;10437007;28;20241;-83
2024/02/26 02:01:11;;;;;;;0.40;0.40;;;9.40;92.20;;;;;;10433709;28;20275;-84
2024/02/26 02:06:16;;;;;;;0.40;0.40;;;9.40;92.10;;;;;;10445351;28;20208;-83
2024/02/26 02:11:18;;;;;;;0.40;0.40;;;9.40;92.10;;;;;;10442839;28;20197;-83
2024/02/26 02:16:21;;;;;;;0.40;0.40;;;9.40;92.30;;;;;;10443175;28;20254;-83
2024/02/26 02:21:24;;;;;;;0.40;0.40;;;9.40;92.30;;;;;;10447310;28;20193;-83
2024/02/26 02:26:27;;;;;;;0.40;0.40;;;9.40;92.30;;;;;;10445805;28;20619;-84
2024/02/26 02:31:29;;;;;;;0.40;0.40;;;9.40;92.30;;;;;;10438335;28;20232;-83
2024/02/26 02:36:33;;;;;;;0.40;0.40;;;9.40;92.20;;;;;;10447450;28;20620;-83
2024/02/26 02:41:35;;;;;;;0.40;0.40;;;9.40;92.10;;;;;;10442028;28;20213;-83
2024/02/26 02:46:38;;;;;;;0.40;0.40;;;9.40;91.90;;;;;;10447315;28;20571;-83
2024/02/26 02:51:42;;;;;;;0.40;0.40;;;9.40;92.20;;;;;;10446672;28;20229;-83
2024/02/26 02:56:44;;;;;;;0.40;0.40;;;9.50;91.70;;;;;;10454496;28;20679;-83
2024/02/26 03:01:46;;;;;;;0.40;0.40;;;9.50;91.60;;;;;;10447322;28;20228;-83
2024/02/26 03:06:50;;;;;;;0.40;0.40;;;9.50;91.40;;;;;;10452093;28;20295;-83
2024/02/26 03:11:53;;;;;;;0.40;0.40;;;9.50;91.30;;;;;;10449394;28;20270;-83
2024/02/26 03:16:55;;;;;;;0.40;0.40;;;9.50;91.50;;;;;;10435541;28;20202;-83
2024/02/26 03:21:59;;;;;;;0.40;0.40;;;9.60;92.70;;;;;;10436623;28;20656;-83
2024/02/26 03:27:01;;;;;;;0.40;0.40;;;9.60;92.70;;;;;;10442641;28;20259;-84
2024/02/26 03:32:04;;;;;;;0.50;0.50;;;9.60;92.70;;;;;;10448808;28;20217;-83
2024/02/26 03:37:10;;;;;;;0.40;0.40;;;9.60;92.50;;;;;;10438772;28;20193;-83
2024/02/26 03:42:12;;;;;;;0.40;0.40;;;9.60;92.70;;;;;;10446019;28;20213;-83
2024/02/26 03:47:15;;;;;;;0.50;0.50;;;9.60;93.10;;;;;;10440948;28;20221;-84
2024/02/26 03:52:18;;;;;;;0.50;0.50;;;9.60;93.40;;;;;;10446668;28;20953;-83
2024/02/26 03:57:21;;;;;;;0.50;0.50;;;9.60;94.00;;;;;;10436453;28;20189;-83
2024/02/26 04:02:23;;;;;;;0.40;0.40;;;9.50;93.70;;;;;;10446639;28;20274;-84
2024/02/26 04:07:27;;;;;;;0.50;0.50;;;9.50;91.50;;;;;;10434558;28;20759;-83
2024/02/26 04:12:29;;;;;;;0.80;0.80;;;9.50;91.90;;;;;;10450517;28;20221;-83
2024/02/26 04:17:32;;;;;;;0.70;0.70;;;9.50;92.10;;;;;;10445610;28;20198;-83
2024/02/26 04:22:35;;;;;;;0.60;0.60;;;9.50;92.40;;;;;;10449617;28;20234;-84
2024/02/26 04:27:38;;;;;;;0.50;0.50;;;9.50;92.60;;;;;;10438228;28;20254;-84
2024/02/26 04:32:40;;;;;;;0.60;0.60;;;9.50;93.10;;;;;;10441456;28;20632;-83
2024/02/26 04:37:44;;;;;;;0.70;0.70;;;9.60;92.90;;;;;;10438259;28;20201;-83
2024/02/26 04:42:46;;;;;;;0.60;0.60;;;9.60;92.80;;;;;;10439870;28;20886;-84
2024/02/26 04:47:48;;;;;;;0.60;0.60;;;9.60;92.50;;;;;;10438711;28;20201;-83
2024/02/26 04:52:52;;;;;;;0.80;0.80;;;9.60;92.20;;;;;;10439567;28;20217;-84
2024/02/26 04:57:55;;;;;;;0.60;0.60;;;9.60;91.90;;;;;;10448283;28;20198;-83
2024/02/26 05:02:57;;;;;;;0.50;0.50;;;9.50;91.90;;;;;;10448344;28;20221;-82
2024/02/26 05:08:02;;;;;;;0.57;0.57;;;9.50;91.90;;;;;;10440371;28;20683;-83
2024/02/26 05:13:05;;;;;;;1.00;1.00;;;9.50;92.00;;;;;;10431925;28;20229;-82
2024/02/26 05:18:08;;;;;;;0.70;0.70;;;9.60;91.90;;;;;;10449647;28;20189;-82
2024/02/26 05:23:12;;;;;;;0.40;0.40;;;9.60;91.80;;;;;;10442049;28;20213;-83
2024/02/26 05:28:15;;;;;;;0.80;0.80;;;9.60;91.10;;;;;;10432611;28;20205;-83
2024/02/26 05:33:17;;;;;;;0.90;0.90;;;9.60;91.00;;;;;;10436961;28;20712;-82
2024/02/26 05:38:21;;;;;;;0.63;0.63;;;9.60;91.30;;;;;;10435272;28;20259;-83
2024/02/26 05:43:23;;;;;;;0.70;0.70;;;9.70;91.90;;;;;;10439578;28;20225;-82
2024/02/26 05:48:26;;;;;;;0.40;0.40;;;9.70;92.70;;;;;;10454066;28;20201;-82
2024/02/26 05:53:29;;;;;;;0.70;0.70;;;9.70;93.00;;;;;;10438449;28;20721;-81
2024/02/26 05:58:32;;;;;;;0.60;0.60;;;9.70;93.60;;;;;;10440704;28;20619;-81
2024/02/26 06:03:34;;;;;;;0.47;0.47;;;9.60;94.20;;;;;;10435684;28;20224;-83
2024/02/26 06:08:38;;;;;;;0.60;0.60;;;9.50;94.80;;;;;;10434870;28;20201;-83
2024/02/26 06:13:40;;;;;;;0.70;0.70;;;9.50;95.40;;;;;;10446205;28;20256;-84
2024/02/26 06:18:43;;;;;;;0.70;0.70;;;9.40;95.80;;;;;;10434363;28;20258;-83
2024/02/26 06:23:47;;;;;;;0.70;0.70;;;9.30;96.10;;;;;;10454516;28;20508;-83
2024/02/26 06:28:52;;;;;;;0.80;0.80;;;9.20;96.50;;;;;;10415048;28;20698;-81
2024/02/26 06:33:57;;;;;;;0.40;0.40;;;9.10;96.90;;;;;;10417069;28;20248;-82
2024/02/26 06:39:01;;;;;;;0.60;0.60;;;9.10;97.20;;;;;;10408668;28;20260;-82
2024/02/26 06:44:03;;;;;;;0.60;0.60;;;9.00;97.30;;;;;;10411138;28;20220;-82
2024/02/26 06:49:06;;;;;;;0.20;0.20;;;9.00;97.60;;;;;;10395953;28;20206;-81
2024/02/26 06:54:09;;;;;;;0.70;0.70;;;8.90;97.80;;;;;;10430292;28;20692;-81
2024/02/26 06:59:12;;;;;;;0.70;0.70;;;8.90;97.90;;;;;;10414794;28;20198;-81
2024/02/26 07:04:14;;;;;;;0.60;0.60;;;8.90;98.00;;;;;;10409326;28;20218;-80
2024/02/26 07:09:18;;;;;;;0.60;0.60;;;9.00;98.00;;;;;;10423698;28;20194;-81
2024/02/26 07:14:20;;;;;;;0.80;0.80;;;9.00;98.20;;;;;;10415527;28;20231;-81
2024/02/26 07:19:23;;;;;;;0.70;0.70;;;9.10;97.90;;;;;;10416180;28;20201;-81
2024/02/26 07:24:26;;;;;;;0.60;0.60;;;9.20;97.80;;;;;;10418052;28;20226;-81
2024/02/26 07:29:29;;;;;;;0.50;0.50;;;9.30;98.00;;;;;;10416372;28;20209;-81
2024/02/26 07:34:31;;;;;;;0.50;0.50;;;9.30;97.90;;;;;;10414338;28;20256;-81
2024/02/26 07:39:35;;;;;;;0.50;0.50;;;9.40;97.70;;;;;;10408897;28;20198;-81
2024/02/26 07:44:37;;;;;;;0.70;0.70;;;9.50;97.60;;;;;;10423486;28;20222;-80
2024/02/26 07:49:40;;;;;;;0.60;0.60;;;9.60;97.60;;;;;;10421369;28;20490;-81
2024/02/26 07:54:44;;;;;;;0.50;0.50;;;9.70;97.50;;;;;;10423036;28;20286;-81
2024/02/26 07:59:49;;;;;;;0.60;0.60;;;9.80;97.70;;;;;;10423383;28;20209;-81
2024/02/26 08:04:52;;;;;;;0.37;0.37;;;9.90;97.40;;;;;;10428779;28;20294;-81
2024/02/26 08:09:55;;;;;;;0.60;0.60;;;10.00;96.50;;;;;;10426453;28;20761;-81
2024/02/26 08:14:58;;;;;;;0.80;0.80;;;10.10;96.50;;;;;;10417690;28;20264;-81
2024/02/26 08:20:00;;;;;;;0.50;0.50;;;10.20;96.40;;;;;;10420368;28;20201;-81
2024/02/26 08:25:06;;;;;;;0.70;0.70;;;10.40;96.30;;;;;;10417209;28;20230;-81
2024/02/26 08:30:10;;;;;;;0.70;0.70;;;10.50;94.30;;;;;;10421144;28;20225;-83
2024/02/26 08:35:12;;;;;;;0.30;0.30;;;10.50;94.20;;;;;;10421403;28;20218;-83
2024/02/26 08:40:16;;;;;;;0.50;0.50;;;10.50;93.50;;;;;;10418159;28;20214;-82
2024/02/26 08:45:18;;;;;;;0.30;0.30;;;10.60;93.30;;;;;;10415876;28;20274;-84
2024/02/26 08:50:21;;;;;;;0.37;0.37;;;10.70;92.10;;;;;;10427983;28;20210;-84
2024/02/26 08:55:25;;;;;;;0.30;0.30;;;10.70;91.70;;;;;;10421884;28;20805;-84
2024/02/26 09:00:27;;;;;;;0.40;0.40;;;10.80;92.30;;;;;;10431645;28;20201;-84
2024/02/26 09:05:29;;;;;;;0.37;0.37;;;10.90;91.80;;;;;;10454323;28;20724;-84
2024/02/26 09:10:33;;;;;;;0.60;0.60;;;11.00;92.60;;;;;;10449100;28;20193;-84
2024/02/26 09:15:36;;;;;;;0.47;0.47;;;11.10;93.00;;;;;;10438106;28;20217;-83
2024/02/26 09:20:38;;;;;;;0.40;0.40;;;11.20;92.90;;;;;;10449773;28;20679;-83
2024/02/26 09:25:42;;;;;;;0.50;0.50;;;11.30;92.80;;;;;;10443407;28;20302;-83
2024/02/26 09:30:44;;;;;;;0.53;0.53;;;11.30;92.90;;;;;;10453097;28;20666;-84
2024/02/26 09:35:47;;;;;;;0.40;0.40;;;11.40;93.20;;;;;;10448415;28;20335;-84
2024/02/26 09:40:52;;;;;;;0.47;0.47;;;11.50;93.10;;;;;;10450549;28;20653;-84
2024/02/26 09:45:55;;;;;;;0.50;0.50;;;11.60;93.00;;;;;;10438222;28;20271;-84
2024/02/26 09:50:57;;;;;;;0.50;0.50;;;11.60;93.30;;;;;;10446399;28;20667;-84
2024/02/26 09:56:01;;;;;;;0.40;0.40;;;11.60;93.20;;;;;;10442248;28;20244;-83
2024/02/26 10:01:09;;;;;;;0.50;0.50;;;11.70;92.20;;;;;;10441852;28;20212;-83
2024/02/26 10:06:12;;;;;;;0.40;0.40;;;11.80;90.40;;;;;;10436618;28;20217;-84
2024/02/26 10:11:16;;;;;;;0.50;0.50;;;11.90;90.70;;;;;;10445340;28;20221;-83
2024/02/26 10:16:19;;;;;;;0.40;0.40;;;12.00;91.20;;;;;;10451020;28;20713;-84
2024/02/26 10:21:22;;;;;;;0.40;0.40;;;12.10;91.70;;;;;;10428334;28;20393;-83
2024/02/26 10:26:26;;;;;;;0.40;0.40;;;12.20;91.70;;;;;;10438525;28;20217;-84
2024/02/26 10:31:29;;;;;;;0.40;0.40;;;12.30;91.00;;;;;;10443517;28;20233;-83
2024/02/26 10:36:34;;;;;;;0.40;0.40;;;12.40;91.40;;;;;;10433249;28;20582;-84
2024/02/26 10:41:38;;;;;;;0.40;0.40;;;12.40;91.00;;;;;;10445260;28;20221;-84
2024/02/26 10:46:41;;;;;;;0.47;0.47;;;12.40;90.90;;;;;;10441011;28;20218;-83
2024/02/26 10:51:46;;;;;;;0.40;0.40;;;12.40;90.60;;;;;;10428392;28;20706;-83
2024/02/26 10:56:50;;;;;;;0.40;0.40;;;12.50;90.20;;;;;;10433860;28;20193;-83
2024/02/26 11:01:55;;;;;;;0.40;0.40;;;12.60;89.60;;;;;;10447205;28;20225;-84
2024/02/26 11:06:59;;;;;;;0.40;0.40;;;12.60;90.50;;;;;;10449399;28;20217;-83
2024/02/26 11:12:07;;;;;;;0.50;0.50;;;12.60;89.50;;;;;;10460917;28;20636;-84
2024/02/26 11:17:11;;;;;;;0.50;0.50;;;12.60;90.20;;;;;;10446638;28;20593;-84
2024/02/26 11:22:14;;;;;;;0.50;0.50;;;12.60;90.70;;;;;;10435783;28;20213;-84
2024/02/26 11:27:20;;;;;;;0.60;0.60;;;12.50;90.90;;;;;;10444143;28;20220;-83
2024/02/26 11:32:22;;;;;;;0.50;0.50;;;12.40;91.10;;;;;;10429654;28;20718;-83
2024/02/26 11:37:26;;;;;;;0.47;0.47;;;12.40;91.90;;;;;;10448874;28;20186;-84
2024/02/26 11:42:30;;;;;;;0.40;0.40;;;12.40;92.40;;;;;;10462512;28;20218;-84
2024/02/26 11:47:36;;;;;;;0.50;0.50;;;12.60;90.30;;;;;;10446786;28;20236;-83
2024/02/26 11:52:38;;;;;;;0.50;0.50;;;12.80;90.40;;;;;;10423937;28;20229;-84
2024/02/26 11:57:42;;;;;;;0.43;0.43;;;13.00;90.50;;;;;;10421668;28;20271;-84
2024/02/26 12:02:48;;;;;;;0.50;0.50;;;13.20;90.70;;;;;;10423939;28;20656;-83
2024/02/26 12:07:54;;;;;;;0.50;0.50;;;13.40;90.60;;;;;;10437976;28;20287;-84
2024/02/26 12:13:02;;;;;;;0.40;0.40;;;13.50;90.70;;;;;;10453877;28;20272;-84
2024/02/26 12:18:06;;;;;;;0.60;0.60;;;13.60;91.30;;;;;;10442347;28;20240;-84
2024/02/26 12:23:08;;;;;;;0.40;0.40;;;13.60;90.90;;;;;;10443729;28;20637;-84
2024/02/26 12:28:12;;;;;;;0.43;0.43;;;13.60;90.80;;;;;;10444839;28;20224;-83
2024/02/26 12:33:14;;;;;;;0.50;0.50;;;13.50;91.10;;;;;;10446306;28;20224;-84
2024/02/26 12:38:17;;;;;;;0.40;0.40;;;13.50;91.10;;;;;;10442667;28;20581;-84
2024/02/26 12:43:20;;;;;;;0.40;0.40;;;13.50;91.40;;;;;;10450255;28;20217;-83
2024/02/26 12:48:23;;;;;;;0.30;0.30;;;13.50;91.70;;;;;;10439632;28;20217;-84
2024/02/26 12:53:27;;;;;;;0.30;0.30;;;13.60;91.30;;;;;;10449925;28;20229;-83
2024/02/26 12:58:31;;;;;;;0.40;0.40;;;13.70;90.60;;;;;;10445245;28;20569;-85
2024/02/26 13:03:35;;;;;;;0.30;0.30;;;13.70;91.00;;;;;;10444536;28;20213;-84
2024/02/26 13:08:37;;;;;;;0.30;0.30;;;13.60;90.00;;;;;;10437648;28;20218;-85
2024/02/26 13:13:41;;;;;;;0.30;0.30;;;13.60;90.80;;;;;;10438165;28;20715;-86
2024/02/26 13:18:44;;;;;;;0.30;0.30;;;13.60;90.60;;;;;;10447530;28;20664;-83
2024/02/26 13:23:50;;;;;;;0.50;0.50;;;13.70;90.10;;;;;;10447503;28;20346;-83
2024/02/26 13:29:03;;;;;;;0.40;0.40;;;13.80;89.40;;;;;;10437786;28;20753;-83
2024/02/26 13:34:05;;;;;;;0.40;0.40;;;13.80;89.20;;;;;;10454993;28;20220;-83
2024/02/26 13:39:12;;;;;;;0.40;0.40;;;13.90;89.00;;;;;;10449616;28;20193;-83
2024/02/26 13:44:16;;;;;;;0.40;0.40;;;13.90;90.10;;;;;;10451853;28;20709;-83
2024/02/26 13:49:19;;;;;;;0.40;0.40;;;14.00;89.10;;;;;;10445888;28;20217;-83
2024/02/26 13:54:21;;;;;;;0.30;0.30;;;14.00;89.50;;;;;;10408450;28;20256;-82
2024/02/26 13:59:25;;;;;;;0.40;0.40;;;14.00;90.10;;;;;;10431350;28;20675;-82
2024/02/26 14:04:27;;;;;;;0.40;0.40;;;14.00;86.90;;;;;;10445946;28;20225;-82
2024/02/26 14:09:29;;;;;;;0.37;0.37;;;14.00;89.00;;;;;;10433454;28;20221;-82
2024/02/26 14:14:36;;;;;;;0.30;0.30;;;14.00;88.20;;;;;;10407600;28;20222;-82
2024/02/26 14:19:39;;;;;;;0.40;0.40;;;13.90;88.40;;;;;;10425824;28;20271;-82
2024/02/26 14:24:42;;;;;;;0.40;0.40;;;13.80;87.90;;;;;;10447978;28;20229;-82
2024/02/26 14:29:45;;;;;;;0.40;0.40;;;13.80;86.10;;;;;;10458899;28;20249;-82
2024/02/26 14:34:48;;;;;;;0.33;0.33;;;13.70;85.90;;;;;;10454401;28;20221;-82
2024/02/26 14:39:51;;;;;;;0.60;0.60;;;13.60;87.10;;;;;;10466189;28;20210;-84
2024/02/26 14:44:55;;;;;;;0.40;0.40;;;13.60;85.30;;;;;;10465799;28;20225;-83
2024/02/26 14:49:57;;;;;;;0.50;0.50;;;13.60;82.90;;;;;;10444377;28;20225;-82
2024/02/26 14:55:00;;;;;;;0.50;0.50;;;13.50;83.90;;;;;;10459458;28;20710;-82
2024/02/26 15:00:05;;;;;;;0.40;0.40;;;13.50;83.30;;;;;;10469278;28;20197;-83
2024/02/26 15:05:10;;;;;;;0.50;0.50;;;13.50;84.90;;;;;;10447238;28;20222;-83
2024/02/26 15:10:13;;;;;;;0.50;0.50;;;13.50;86.60;;;;;;10457501;28;20210;-83
2024/02/26 15:15:17;;;;;;;0.60;0.60;;;13.50;86.90;;;;;;10461709;28;20225;-82
2024/02/26 15:20:20;;;;;;;0.40;0.40;;;13.50;88.50;;;;;;10458749;28;20633;-83
2024/02/26 15:25:22;;;;;;;0.50;0.50;;;13.50;88.20;;;;;;10447915;28;20812;-83
2024/02/26 15:30:28;;;;;;;0.50;0.50;;;13.50;88.90;;;;;;10463507;28;20221;-83
2024/02/26 15:35:30;;;;;;;0.40;0.40;;;13.40;89.30;;;;;;10446459;28;20247;-83
2024/02/26 15:40:32;;;;;;;0.50;0.50;;;13.40;89.80;;;;;;10468726;28;20247;-83
2024/02/26 15:45:36;;;;;;;0.40;0.40;;;13.30;90.60;;;;;;10461612;28;20252;-83
2024/02/26 15:50:41;;;;;;;0.50;0.50;;;13.20;89.90;;;;;;10474839;28;20701;-83
2024/02/26 15:55:43;;;;;;;0.50;0.50;;;13.20;90.50;;;;;;10453104;28;20252;-83
2024/02/26 16:00:47;;;;;;;0.40;0.40;;;13.10;90.90;;;;;;10469812;28;20206;-82
2024/02/26 16:05:49;;;;;;;0.50;0.50;;;13.00;91.60;;;;;;10443708;28;20648;-83
2024/02/26 16:10:52;;;;;;;0.40;0.40;;;12.90;91.90;;;;;;10445604;28;20205;-83
2024/02/26 16:16:02;;;;;;;0.40;0.40;;;12.80;92.30;;;;;;10455648;28;20271;-83
2024/02/26 16:21:05;;;;;;;0.50;0.50;;;12.70;92.30;;;;;;10449925;28;20193;-82
2024/02/26 16:26:07;;;;;;;0.50;0.50;;;12.60;92.90;;;;;;10447035;28;20747;-83
2024/02/26 16:31:11;;;;;;;0.50;0.50;;;12.50;93.40;;;;;;10467719;28;20286;-83
2024/02/26 16:36:13;;;;;;;0.50;0.50;;;12.40;93.90;;;;;;10455384;28;20189;-82
2024/02/26 16:41:16;;;;;;;0.60;0.60;;;12.30;94.00;;;;;;10443323;28;20552;-84
2024/02/26 16:46:19;;;;;;;0.60;0.60;;;12.30;94.40;;;;;;10426773;28;20737;-82
2024/02/26 16:51:22;;;;;;;0.67;0.67;;;12.20;94.80;;;;;;10441203;28;20221;-82
2024/02/26 16:56:24;;;;;;;0.40;0.40;;;12.10;94.80;;;;;;10426424;28;20201;-84
2024/02/26 17:01:28;;;;;;;0.50;0.50;;;12.10;94.90;;;;;;10410166;28;20194;-84
2024/02/26 17:06:30;;;;;;;0.10;0.10;;;12.10;94.30;;;;;;10438460;22;20237;-78
2024/02/26 17:11:33;;;;;;;0.43;0.43;;;12.10;93.40;;;;;;10436190;28;20614;-77
2024/02/26 17:16:39;;;;;;;0.30;0.30;;;12.20;92.90;;;;;;10440649;28;20209;-76
2024/02/26 17:21:41;;;;;;;0.50;0.50;;;12.20;93.10;;;;;;10447130;28;20274;-77
2024/02/26 17:26:52;;;;;;;0.20;0.20;;;12.10;93.60;;;;;;10649084;27;20556;-78
2024/02/26 17:31:54;;;;;;;0.50;0.50;;;12.10;93.90;;;;;;10609281;27;20186;-79
2024/02/26 17:36:57;;;;;;;0.60;0.60;;;12.00;94.20;;;;;;10603777;27;20210;-78
2024/02/26 17:42:01;;;;;;;0.60;0.60;;;11.90;93.90;;;;;;10600509;27;20236;-78
2024/02/26 17:47:03;;;;;;;0.60;0.60;;;11.90;93.90;;;;;;10607663;27;20263;-77
2024/02/26 17:52:06;;;;;;;0.50;0.50;;;11.90;93.70;;;;;;10585258;27;20215;-76
2024/02/26 17:57:10;;;;;;;0.50;0.50;;;11.80;93.90;;;;;;10604162;27;20719;-75
2024/02/26 18:02:12;;;;;;;0.60;0.60;;;11.80;94.30;;;;;;10598599;27;20206;-79
2024/02/26 18:07:14;;;;;;;0.60;0.60;;;11.80;94.40;;;;;;10603372;27;20222;-77
2024/02/26 18:12:18;;;;;;;0.50;0.50;;;11.70;94.10;;;;;;10599573;27;20211;-77
2024/02/26 18:17:22;;;;;;;0.60;0.60;;;11.70;93.40;;;;;;10608163;27;20707;-79
2024/02/26 18:22:24;;;;;;;0.50;0.50;;;11.80;93.10;;;;;;10608946;27;20227;-78
2024/02/26 18:27:29;;;;;;;0.40;0.40;;;11.70;93.10;;;;;;10598103;27;20273;-77
2024/02/26 18:32:32;;;;;;;0.50;0.50;;;11.70;92.90;;;;;;10604293;27;20628;-77
2024/02/26 18:37:35;;;;;;;0.60;0.60;;;11.70;92.80;;;;;;10571523;27;20223;-77
2024/02/26 18:42:39;;;;;;;0.30;0.30;;;11.70;92.90;;;;;;10578099;28;20227;-79
2024/02/26 18:47:42;;;;;;;0.60;0.60;;;11.70;93.20;;;;;;10570073;27;20682;-79
2024/02/26 18:52:46;;;;;;;0.50;0.50;;;11.70;93.20;;;;;;10575438;28;20187;-78
2024/02/26 18:57:49;;;;;;;0.50;0.50;;;11.70;93.70;;;;;;10556010;28;20225;-78
2024/02/26 19:02:52;;;;;;;0.50;0.50;;;11.70;93.60;;;;;;10559982;28;20211;-77
2024/02/26 19:07:58;;;;;;;0.50;0.50;;;11.70;93.50;;;;;;10569475;28;20211;-78
2024/02/26 19:13:02;;;;;;;0.40;0.40;;;11.70;93.30;;;;;;10567751;28;20270;-77
2024/02/26 19:18:06;;;;;;;0.40;0.40;;;11.60;93.20;;;;;;10547001;27;20792;-78
2024/02/26 19:23:09;;;;;;;0.30;0.30;;;11.60;92.90;;;;;;10562183;28;20231;-76
2024/02/26 19:28:14;;;;;;;0.40;0.40;;;11.60;92.70;;;;;;10560349;27;20268;-76
2024/02/26 19:33:16;;;;;;;0.50;0.50;;;11.60;92.80;;;;;;10557148;28;20540;-76
2024/02/26 19:38:19;;;;;;;0.50;0.50;;;11.50;93.00;;;;;;10561456;28;20215;-76
2024/02/26 19:43:23;;;;;;;0.50;0.50;;;11.50;93.10;;;;;;10556565;28;20219;-78
2024/02/26 19:48:25;;;;;;;0.40;0.40;;;11.40;93.40;;;;;;10570236;27;20219;-76
2024/02/26 19:53:27;;;;;;;0.50;0.50;;;11.40;93.50;;;;;;10564696;28;20196;-77
2024/02/26 19:58:31;;;;;;;0.50;0.50;;;11.30;93.00;;;;;;10568875;28;20223;-77
2024/02/26 20:03:34;;;;;;;0.40;0.40;;;11.30;93.50;;;;;;10574229;28;20223;-77
2024/02/26 20:08:36;;;;;;;0.40;0.40;;;11.30;93.10;;;;;;10565456;28;20268;-76
2024/02/26 20:13:42;;;;;;;0.50;0.50;;;11.30;93.20;;;;;;10562701;28;20231;-77
2024/02/26 20:18:44;;;;;;;0.60;0.60;;;11.30;92.90;;;;;;10573830;27;20227;-78
2024/02/26 20:23:47;;;;;;;0.50;0.50;;;11.30;92.60;;;;;;10567261;28;20207;-77
2024/02/26 20:28:51;;;;;;;0.50;0.50;;;11.30;92.80;;;;;;10561333;28;20219;-78
2024/02/26 20:33:53;;;;;;;0.40;0.40;;;11.30;92.80;;;;;;10565353;28;20789;-76
2024/02/26 20:38:55;;;;;;;0.50;0.50;;;11.30;93.20;;;;;;10565125;28;20199;-77
2024/02/26 20:43:59;;;;;;;0.50;0.50;;;11.30;93.20;;;;;;10563670;28;20573;-77
2024/02/26 20:49:02;;;;;;;0.50;0.50;;;11.30;93.10;;;;;;10570385;27;20208;-77
2024/02/26 20:54:08;;;;;;;0.60;0.60;;;11.30;93.30;;;;;;10566955;28;20208;-77
2024/02/26 20:59:12;;;;;;;0.40;0.40;;;11.30;93.20;;;;;;10566145;28;20668;-77
2024/02/26 21:04:14;;;;;;;0.40;0.40;;;11.30;93.30;;;;;;10557615;28;20267;-77
2024/02/26 21:09:18;;;;;;;0.50;0.50;;;11.30;93.30;;;;;;10547350;28;20212;-75
2024/02/26 21:14:21;;;;;;;0.40;0.40;;;11.30;93.50;;;;;;10572691;28;20581;-77
2024/02/26 21:19:24;;;;;;;0.60;0.60;;;11.30;93.60;;;;;;10575215;27;20203;-77
2024/02/26 21:24:26;;;;;;;0.60;0.60;;;11.30;94.50;;;;;;10571874;28;20715;-76
2024/02/26 21:29:30;;;;;;;0.50;0.50;;;11.10;94.80;;;;;;10567523;28;20611;-77
2024/02/26 21:34:32;;;;;;;0.30;0.30;;;11.00;95.40;;;;;;10570132;28;20222;-74
2024/02/26 21:39:36;;;;;;;0.40;0.40;;;11.00;95.80;;;;;;10570086;28;20199;-75
2024/02/26 21:44:40;;;;;;;0.40;0.40;;;11.00;94.90;;;;;;10573277;28;20230;-77
2024/02/26 21:49:42;;;;;;;0.30;0.30;;;11.00;95.60;;;;;;10574791;27;20565;-78
2024/02/26 21:54:49;;;;;;;0.50;0.50;;;11.00;95.70;;;;;;10569731;28;20272;-77
2024/02/26 21:59:53;;;;;;;0.60;0.60;;;11.00;96.10;;;;;;10566581;28;20202;-77
2024/02/26 22:04:55;;;;;;;0.50;0.50;;;11.10;96.50;;;;;;10565432;28;20274;-77
2024/02/26 22:09:57;;;;;;;0.50;0.50;;;11.10;96.90;;;;;;10562478;28;20223;-77
2024/02/26 22:15:04;;;;;;;0.50;0.50;;;11.10;96.90;;;;;;10582008;27;20214;-76
2024/02/26 22:20:07;;;;;;;0.40;0.40;;;11.10;96.70;;;;;;10580482;27;20206;-77
2024/02/26 22:25:10;;;;;;;0.60;0.60;;;11.10;96.90;;;;;;10577766;28;20227;-78
2024/02/26 22:30:14;;;;;;;0.50;0.50;;;11.10;96.70;;;;;;10577526;28;20199;-77
2024/02/26 22:35:16;;;;;;;0.40;0.40;;;11.00;96.70;;;;;;10577433;28;20257;-78
2024/02/26 22:40:19;;;;;;;0.60;0.60;;;11.00;97.10;;;;;;10577351;28;20191;-77
2024/02/26 22:45:24;;;;;;;0.50;0.50;;;10.90;97.50;;;;;;10570288;28;20280;-78
2024/02/26 22:50:26;;;;;;;0.50;0.50;;;10.90;97.40;;;;;;10570453;28;20671;-77
2024/02/26 22:55:29;;;;;;;0.50;0.50;;;10.80;97.50;;;;;;10575314;28;20765;-79
2024/02/26 23:00:35;;;;;;;0.70;0.70;;;10.80;97.70;;;;;;10577114;28;20256;-78
2024/02/26 23:05:37;;;;;;;0.50;0.50;;;10.80;97.70;;;;;;10587709;22;20228;-79
2024/02/26 23:10:40;;;;;;;0.50;0.50;;;10.80;97.70;;;;;;10536089;28;20199;-79
2024/02/26 23:15:44;;;;;;;0.50;0.50;;;10.80;97.80;;;;;;10532136;28;20371;-79
2024/02/26 23:20:46;;;;;;;0.60;0.60;;;10.80;97.30;;;;;;10541665;28;20211;-81
2024/02/26 23:25:48;;;;;;;0.70;0.70;;;10.90;97.40;;;;;;10544244;28;20249;-81
2024/02/26 23:30:52;;;;;;;0.50;0.50;;;10.90;96.80;;;;;;10545900;28;20203;-80
2024/02/26 23:35:54;;;;;;;0.50;0.50;;;10.90;96.50;;;;;;10545623;28;20208;-82
2024/02/26 23:40:57;;;;;;;0.50;0.50;;;11.00;96.80;;;;;;10546123;28;20532;-80
2024/02/26 23:46:00;;;;;;;0.60;0.60;;;11.00;97.00;;;;;;10542849;28;20224;-83
2024/02/26 23:51:03;;;;;;;0.50;0.50;;;11.00;97.00;;;;;;10545323;28;20677;-82
2024/02/26 23:56:06;;;;;;;0.60;0.60;;;11.00;97.20;;;;;;10543326;28;20215;-84
